Saturday, September 22, 2018, 10:38 PM EDT
Back to Local

KMSV, Monticello, Sullivan County International Airport

Location: Swan Lake, NY, United States Lat: 41.7
Local Time: 10:38 PM EDT ( 2:38 GMT) Lon: -74.8
Time Zone: US/Eastern Elev: 1404 ft

Show me the last for .
Show Decoded

2018-09-22 21:56 METAR KMSV 230156Z AUTO 00000KT 10SM CLR 11/09 A3025 RMK AO2 SLP246 T01060089 =
2018-09-22 20:56 METAR KMSV 230056Z AUTO 00000KT 10SM CLR 11/09 A3026 RMK AO2 SLP248 T01110089 =
2018-09-22 19:56 METAR KMSV 222356Z AUTO 00000KT 10SM CLR 12/09 A3024 RMK AO2 SLP242 T01170089
                 10178 20117 51013 =
2018-09-22 18:56 METAR KMSV 222256Z AUTO 34003KT 10SM CLR 13/08 A3023 RMK AO2 SLP238 T01280083 =
2018-09-22 17:56 METAR KMSV 222156Z AUTO 33005KT 10SM CLR 14/08 A3022 RMK AO2 SLP232 T01440083 =
2018-09-22 16:56 METAR KMSV 222056Z AUTO 32007KT 10SM CLR 16/08 A3020 RMK AO2 SLP225 T01560083
                 53001 =
2018-09-22 15:56 METAR KMSV 221956Z AUTO 31005KT 10SM CLR 17/08 A3020 RMK AO2 SLP222 T01670083 =
2018-09-22 14:56 METAR KMSV 221856Z AUTO 32009KT 10SM CLR 17/09 A3020 RMK AO2 SLP222 T01720089 =
2018-09-22 13:56 METAR KMSV 221756Z AUTO 33011KT 10SM CLR 17/09 A3020 RMK AO2 SLP222 T01720089
                 10172 20128 55000 =
2018-09-22 12:56 METAR KMSV 221656Z AUTO 34009KT 10SM CLR 16/09 A3019 RMK AO2 SLP220 T01610094 =
2018-09-22 11:56 METAR KMSV 221556Z AUTO 33011G19KT 10SM CLR 16/09 A3018 RMK AO2 SLP217 T01610089
                 =
2018-09-22 10:56 METAR KMSV 221456Z AUTO 32008KT 10SM CLR 14/08 A3020 RMK AO2 SLP223 T01440083
                 51020 =
2018-09-22 09:56 METAR KMSV 221356Z AUTO 32007KT 10SM SCT027 13/09 A3017 RMK AO2 SLP216 T01330089
                 =
2018-09-22 08:56 METAR KMSV 221256Z AUTO 31006G15KT 10SM BKN027 13/09 A3016 RMK AO2 SLP212
                 T01280089 =
2018-09-22 08:47 METAR KMSV 221247Z AUTO 31009KT 10SM FEW002 BKN027 13/09 A3016 RMK AO2 =
2018-09-22 08:06 METAR KMSV 221206Z AUTO 31018G23KT 10SM FEW002 SCT026 13/09 A3014 RMK AO2 =
2018-09-22 07:56 METAR KMSV 221156Z AUTO 31013G19KT 10SM FEW002 BKN026 13/09 A3014 RMK AO2 SLP203
                 60001 7//// T01330094 10189 20133 51025 =
2018-09-22 07:51 METAR KMSV 221151Z AUTO 33011G20KT 10SM FEW002 BKN026 13/09 A3014 RMK AO2 =
2018-09-22 07:24 METAR KMSV 221124Z AUTO 29009G18KT 10SM SCT002 14/10 A3011 RMK AO2 =
2018-09-22 06:56 METAR KMSV 221056Z AUTO 30010G15KT 10SM OVC002 14/12 A3009 RMK AO2 SLP188
                 T01440122 =
2018-09-22 05:56 METAR KMSV 220956Z AUTO 31006KT 10SM OVC002 15/13 A3006 RMK AO2 SLP176 T01500128
                 =
2018-09-22 04:56 METAR KMSV 220856Z AUTO 30009KT 10SM OVC002 16/14 A3003 RMK AO2 SLP165 60001
                 T01610144 53017 =
2018-09-22 03:56 METAR KMSV 220756Z AUTO 28011KT 10SM OVC002 19/18 A2999 RMK AO2 SLP149 P0001
                 T01890183 =
2018-09-22 02:56 METAR KMSV 220656Z AUTO 27006KT 9SM BKN002 OVC015 19/19 A2998 RMK AO2 SLP147
                 T01890189 =
2018-09-22 01:56 METAR KMSV 220556Z AUTO 28005KT 10SM OVC002 19/18 A2998 RMK AO2 RAE42 SLP146
                 P0020 6//// T01890183 10194 20183 55008 =
2018-09-22 01:44 METAR KMSV 220544Z AUTO 26005KT 10SM BKN002 BKN015 OVC048 19/18 A2996 RMK AO2
                 RAE42 P0020 =
2018-09-22 00:56 METAR KMSV 220456Z AUTO 22008KT 10SM -RA OVC006 19/19 A2996 RMK AO2 RAB09 SLP139
                 P0000 T01940189 401940156 =
2018-09-21 23:56 METAR KMSV 220356Z AUTO 19006KT 10SM OVC006 19/18 A2997 RMK AO2 SLP145 T01890183
                 =
2018-09-21 22:56 METAR KMSV 220256Z AUTO 21005KT 10SM OVC008 19/18 A3000 RMK AO2 SLP154 6////
                 T01890178 58000 =

Support USWX by starting your Amazon purchase here.